createdAt,value
2018-07-09T00:02:03.857Z,2.20
2018-07-09T00:04:32.408Z,2.70
2018-07-09T00:07:00.567Z,1.90
2018-07-09T00:09:28.963Z,2.03
2018-07-09T00:11:57.131Z,2.00
2018-07-09T00:14:25.300Z,2.03
2018-07-09T00:16:53.482Z,2.30
2018-07-09T00:19:21.635Z,2.37
2018-07-09T00:21:50.144Z,2.10
2018-07-09T00:24:18.327Z,2.20
2018-07-09T00:26:46.504Z,2.10
2018-07-09T00:29:14.768Z,2.13
2018-07-09T00:31:43.047Z,2.30
2018-07-09T00:34:11.715Z,2.07
2018-07-09T00:36:39.899Z,2.63
2018-07-09T00:39:08.077Z,2.27
2018-07-09T00:41:36.605Z,2.33
2018-07-09T00:44:05.058Z,2.30
2018-07-09T00:46:33.416Z,2.00
2018-07-09T00:49:02.215Z,2.47
2018-07-09T00:51:30.604Z,2.63
2018-07-09T00:53:58.759Z,1.90
2018-07-09T00:56:26.923Z,1.80
2018-07-09T00:58:55.103Z,2.37
2018-07-09T01:01:23.918Z,2.30
2018-07-09T01:03:52.091Z,2.30
2018-07-09T01:06:20.566Z,2.00
2018-07-09T01:08:48.767Z,2.00
2018-07-09T01:11:21.328Z,2.50
2018-07-09T01:13:49.545Z,2.67
2018-07-09T01:16:17.668Z,2.60
2018-07-09T01:18:46.059Z,2.37
2018-07-09T01:21:15.036Z,2.20
2018-07-09T01:23:43.333Z,2.63
2018-07-09T01:26:11.795Z,2.60
2018-07-09T01:28:41.127Z,2.13
2018-07-09T01:31:09.682Z,2.47
2018-07-09T01:33:37.990Z,2.33
2018-07-09T01:36:06.189Z,2.63
2018-07-09T01:38:34.422Z,2.30
2018-07-09T01:41:03.089Z,2.73
2018-07-09T01:43:31.289Z,2.40
2018-07-09T01:45:59.480Z,2.93
2018-07-09T01:48:27.723Z,2.67
2018-07-09T01:50:55.920Z,2.50
2018-07-09T01:53:24.085Z,2.50
2018-07-09T01:55:52.295Z,2.57
2018-07-09T01:58:20.430Z,3.57
2018-07-09T02:00:48.622Z,3.50
2018-07-09T02:03:16.812Z,3.00
2018-07-09T02:05:45.372Z,2.50
2018-07-09T02:08:13.507Z,2.70
2018-07-09T02:10:41.679Z,2.97
2018-07-09T02:13:09.920Z,3.17
2018-07-09T02:15:38.275Z,2.87
2018-07-09T02:18:06.469Z,2.90
2018-07-09T02:20:34.643Z,2.83
2018-07-09T02:23:03.123Z,2.60
2018-07-09T02:25:31.290Z,2.90
2018-07-09T02:27:59.476Z,3.10
2018-07-09T02:30:27.740Z,2.67
2018-07-09T02:32:56.136Z,2.50
2018-07-09T02:35:24.295Z,2.80
2018-07-09T02:37:52.812Z,3.40
2018-07-09T02:40:20.961Z,2.77
2018-07-09T02:42:49.130Z,2.50
2018-07-09T02:45:17.315Z,3.10
2018-07-09T02:47:45.482Z,2.80
2018-07-09T02:50:13.680Z,2.87
2018-07-09T02:52:41.933Z,2.53
2018-07-09T02:55:10.332Z,2.70
2018-07-09T02:57:38.477Z,2.80
2018-07-09T03:00:06.976Z,3.10
2018-07-09T03:02:35.153Z,3.00
2018-07-09T03:05:03.332Z,3.13
2018-07-09T03:07:31.495Z,2.50
2018-07-09T03:09:59.680Z,3.40
2018-07-09T03:12:28.011Z,3.20
2018-07-09T03:14:56.177Z,3.13
2018-07-09T03:17:24.404Z,3.50
2018-07-09T03:19:52.691Z,3.27
2018-07-09T03:22:20.866Z,2.37
2018-07-09T03:24:49.003Z,3.37
2018-07-09T03:27:17.515Z,2.73
2018-07-09T03:29:45.696Z,3.70
2018-07-09T03:32:13.980Z,3.10
2018-07-09T03:34:42.136Z,3.00
2018-07-09T03:37:10.531Z,3.40
2018-07-09T03:39:38.703Z,3.13
2018-07-09T03:42:06.987Z,2.80
2018-07-09T03:44:35.314Z,3.20
2018-07-09T03:47:03.820Z,3.20
2018-07-09T03:49:32.220Z,2.90
2018-07-09T03:52:00.420Z,3.27
2018-07-09T03:54:28.596Z,2.90
2018-07-09T03:56:56.947Z,2.90
2018-07-09T03:59:25.131Z,3.13
2018-07-09T04:01:53.300Z,3.03
2018-07-09T04:04:21.706Z,3.77
2018-07-09T04:06:50.308Z,3.63
2018-07-09T04:09:18.664Z,3.30
2018-07-09T04:11:46.852Z,3.27
2018-07-09T04:14:15.108Z,3.40
2018-07-09T04:16:43.284Z,3.27
2018-07-09T04:19:11.564Z,3.30
2018-07-09T04:21:39.836Z,3.00
2018-07-09T04:24:08.200Z,3.47
2018-07-09T04:26:36.347Z,3.67
2018-07-09T04:29:04.741Z,3.50
2018-07-09T04:31:32.948Z,3.20
2018-07-09T04:34:01.154Z,3.63
2018-07-09T04:36:29.501Z,3.70
2018-07-09T04:38:57.699Z,3.70
2018-07-09T04:41:25.844Z,4.00
2018-07-09T04:43:54.114Z,3.50
2018-07-09T04:46:22.315Z,3.70
2018-07-09T04:48:50.683Z,5.53
2018-07-09T04:51:18.890Z,4.40
2018-07-09T04:53:47.047Z,3.40
2018-07-09T04:56:15.311Z,3.70
2018-07-09T04:58:43.491Z,3.70
2018-07-09T05:01:11.671Z,3.80
2018-07-09T05:03:39.854Z,3.70
2018-07-09T05:06:08.164Z,3.27
2018-07-09T05:08:36.304Z,3.10
2018-07-09T05:11:04.805Z,3.40
2018-07-09T05:13:33.004Z,3.60
2018-07-09T05:16:01.388Z,3.70
2018-07-09T05:18:29.724Z,3.20
2018-07-09T05:20:57.910Z,3.60
2018-07-09T05:23:26.237Z,3.60
2018-07-09T05:25:54.428Z,3.43
2018-07-09T05:28:22.630Z,3.33
2018-07-09T05:30:50.804Z,3.10
2018-07-09T05:33:19.035Z,3.07
2018-07-09T05:35:47.444Z,3.33
2018-07-09T05:38:15.639Z,4.13
2018-07-09T05:40:43.788Z,3.13
2018-07-09T05:43:11.988Z,3.20
2018-07-09T05:45:40.198Z,3.10
2018-07-09T05:48:08.744Z,2.47
2018-07-09T05:50:37.120Z,2.70
2018-07-09T05:53:05.855Z,3.00
2018-07-09T05:55:34.099Z,4.20
2018-07-09T05:58:02.255Z,2.80
2018-07-09T06:00:30.572Z,2.43
2018-07-09T06:02:58.699Z,2.97
2018-07-09T06:05:27.339Z,2.13
2018-07-09T06:07:55.717Z,2.60
2018-07-09T06:10:24.155Z,2.10
2018-07-09T06:12:52.444Z,2.63
2018-07-09T06:15:20.827Z,2.60
2018-07-09T06:17:49.103Z,3.10
2018-07-09T06:20:17.372Z,3.10
2018-07-09T06:22:45.596Z,2.27
2018-07-09T06:25:13.740Z,2.47
2018-07-09T06:27:41.873Z,2.47
2018-07-09T06:30:10.179Z,2.67
2018-07-09T06:32:38.361Z,2.70
2018-07-09T06:35:06.524Z,2.30
2018-07-09T06:37:35.069Z,3.00
2018-07-09T06:40:03.596Z,2.43
2018-07-09T06:42:31.753Z,2.40
2018-07-09T06:44:59.904Z,2.70
2018-07-09T06:47:28.145Z,2.37
2018-07-09T06:49:56.544Z,2.87
2018-07-09T06:52:24.888Z,3.10
2018-07-09T06:54:53.068Z,3.00
2018-07-09T06:57:21.231Z,2.13
2018-07-09T06:59:49.804Z,2.57
2018-07-09T07:02:18.038Z,2.60
2018-07-09T07:04:46.563Z,2.80
2018-07-09T07:07:14.760Z,2.30
2018-07-09T07:09:42.923Z,2.80
2018-07-09T07:12:11.496Z,3.00
2018-07-09T07:14:40.006Z,2.90
2018-07-09T07:17:08.369Z,2.90
2018-07-09T07:19:36.582Z,2.73
2018-07-09T07:22:04.812Z,3.13
2018-07-09T07:24:32.965Z,3.20
2018-07-09T07:27:01.248Z,2.80
2018-07-09T07:29:29.764Z,2.90
2018-07-09T07:31:57.932Z,3.07
2018-07-09T07:34:26.119Z,3.03
2018-07-09T07:36:54.300Z,2.60
2018-07-09T07:39:22.591Z,2.90
2018-07-09T07:41:50.934Z,2.73
2018-07-09T07:44:19.132Z,2.73
2018-07-09T07:46:47.533Z,3.20
2018-07-09T07:49:15.661Z,2.70
2018-07-09T07:51:43.865Z,2.30
2018-07-09T07:54:12.127Z,2.80
2018-07-09T07:56:40.426Z,3.40
2018-07-09T07:59:08.792Z,3.00
2018-07-09T08:01:36.960Z,3.10
2018-07-09T08:04:05.244Z,3.00
2018-07-09T08:06:33.623Z,3.13
2018-07-09T08:09:01.787Z,3.23
2018-07-09T08:11:47.728Z,2.77
2018-07-09T08:13:58.641Z,2.80
2018-07-09T08:16:26.832Z,3.17
2018-07-09T08:18:55.058Z,2.90
2018-07-09T08:21:23.477Z,3.10
2018-07-09T08:23:52.763Z,3.23
2018-07-09T08:26:21.374Z,3.47
2018-07-09T08:28:49.588Z,3.20
2018-07-09T08:31:17.983Z,3.93
2018-07-09T08:33:46.250Z,3.20
2018-07-09T08:36:14.707Z,3.50
2018-07-09T08:38:42.981Z,2.93
2018-07-09T08:41:11.160Z,3.73
2018-07-09T08:43:39.390Z,3.40
2018-07-09T08:46:07.580Z,3.50
2018-07-09T08:48:35.743Z,3.27
2018-07-09T08:51:03.920Z,3.37
2018-07-09T08:53:32.156Z,4.10
2018-07-09T08:56:00.487Z,3.20
2018-07-09T08:58:28.791Z,3.57
2018-07-09T09:00:57.509Z,3.30
2018-07-09T09:03:25.902Z,2.87
2018-07-09T09:05:54.028Z,3.80
2018-07-09T09:08:22.205Z,3.27
2018-07-09T09:10:50.396Z,3.73
2018-07-09T09:13:18.638Z,3.40
2018-07-09T09:15:47.211Z,4.00
2018-07-09T09:18:15.729Z,4.10
2018-07-09T09:20:44.243Z,3.90
2018-07-09T09:23:12.599Z,3.77
2018-07-09T09:25:40.809Z,3.93
2018-07-09T09:28:09.129Z,4.20
2018-07-09T09:30:37.442Z,4.30
2018-07-09T09:33:05.999Z,3.80
2018-07-09T09:35:34.197Z,4.03
2018-07-09T09:38:02.440Z,4.30
2018-07-09T09:40:30.732Z,4.07
2018-07-09T09:42:58.914Z,4.30
2018-07-09T09:45:27.293Z,4.70
2018-07-09T09:47:55.458Z,4.57
2018-07-09T09:50:23.643Z,5.00
2018-07-09T09:52:51.914Z,4.40
2018-07-09T09:55:20.120Z,4.40
2018-07-09T09:57:48.271Z,4.00
2018-07-09T10:00:16.468Z,4.67
2018-07-09T10:02:44.643Z,4.50
2018-07-09T10:05:13.123Z,4.47
2018-07-09T10:07:41.388Z,4.23
2018-07-09T10:10:09.745Z,4.03
2018-07-09T10:12:37.959Z,4.77
2018-07-09T10:15:06.103Z,4.40
2018-07-09T10:17:34.376Z,4.23
2018-07-09T10:20:02.965Z,4.10
2018-07-09T10:22:31.113Z,4.10
2018-07-09T10:24:59.421Z,4.50
2018-07-09T10:27:27.711Z,4.20
2018-07-09T10:29:56.438Z,3.87
2018-07-09T10:32:24.656Z,4.43
2018-07-09T10:34:52.834Z,4.60
2018-07-09T10:37:21.029Z,4.20
2018-07-09T10:39:49.533Z,4.20
2018-07-09T10:42:17.704Z,3.93
2018-07-09T10:44:45.847Z,4.97
2018-07-09T10:47:14.199Z,3.70
2018-07-09T10:49:42.516Z,4.43
2018-07-09T10:52:10.697Z,4.63
2018-07-09T10:54:38.888Z,4.40
2018-07-09T10:57:07.032Z,4.27
2018-07-09T10:59:35.237Z,4.77
2018-07-09T11:02:03.491Z,4.20
2018-07-09T11:04:32.092Z,4.10
2018-07-09T11:07:00.809Z,4.93
2018-07-09T11:09:28.995Z,4.77
2018-07-09T11:11:57.140Z,3.87
2018-07-09T11:14:25.311Z,4.40
2018-07-09T11:16:53.923Z,4.43
2018-07-09T11:19:22.443Z,4.63
2018-07-09T11:21:50.640Z,4.40
2018-07-09T11:24:18.828Z,5.13
2018-07-09T11:26:47.079Z,4.70
2018-07-09T11:29:15.319Z,4.10
2018-07-09T11:31:44.242Z,4.77
2018-07-09T11:34:13.144Z,4.47
2018-07-09T11:36:41.449Z,4.10
2018-07-09T11:39:09.564Z,3.73
2018-07-09T11:41:37.728Z,3.53
2018-07-09T11:44:05.924Z,3.87
2018-07-09T11:46:34.125Z,4.03
2018-07-09T11:49:02.464Z,3.40
2018-07-09T11:51:30.633Z,3.07
2018-07-09T11:53:58.839Z,3.57
2018-07-09T11:56:27.000Z,3.77
2018-07-09T11:58:55.368Z,4.47
2018-07-09T12:01:23.684Z,4.20
2018-07-09T12:03:51.877Z,4.57
2018-07-09T12:06:20.225Z,3.63
2018-07-09T12:08:48.368Z,4.10
2018-07-09T12:11:17.089Z,3.33
2018-07-09T12:13:45.437Z,3.47
2018-07-09T12:16:13.927Z,3.73
2018-07-09T12:18:42.107Z,3.43
2018-07-09T12:21:10.279Z,3.73
2018-07-09T12:23:38.495Z,3.93
2018-07-09T12:26:07.012Z,3.60
2018-07-09T12:28:35.225Z,3.57
2018-07-09T12:31:03.766Z,3.77
2018-07-09T12:33:31.928Z,3.40
2018-07-09T12:36:00.135Z,3.80
2018-07-09T12:38:28.266Z,3.63
2018-07-09T12:40:56.558Z,3.60
2018-07-09T12:43:24.717Z,3.60
2018-07-09T12:45:52.913Z,4.43
2018-07-09T12:48:21.166Z,4.37
2018-07-09T12:50:49.392Z,3.70
2018-07-09T12:53:17.639Z,3.70
2018-07-09T12:55:45.839Z,3.83
2018-07-09T12:58:14.191Z,3.70
2018-07-09T13:00:42.343Z,3.83
2018-07-09T13:03:10.512Z,2.97
2018-07-09T13:05:38.762Z,3.50
2018-07-09T13:08:06.908Z,3.17
2018-07-09T13:10:35.064Z,3.77
2018-07-09T13:13:03.286Z,4.20
2018-07-09T13:15:31.474Z,4.47
2018-07-09T13:17:59.629Z,4.50
2018-07-09T13:20:27.807Z,3.80
2018-07-09T13:22:55.947Z,3.50
2018-07-09T13:25:24.091Z,4.00
2018-07-09T13:27:54.084Z,3.30
2018-07-09T13:30:22.321Z,3.40
2018-07-09T13:32:50.519Z,3.63
2018-07-09T13:35:18.729Z,3.90
2018-07-09T13:37:47.034Z,3.80
2018-07-09T13:40:15.364Z,4.60
2018-07-09T13:42:43.620Z,3.73
2018-07-09T13:45:12.172Z,3.57
2018-07-09T13:47:40.348Z,3.70
2018-07-09T13:50:08.480Z,3.80
2018-07-09T13:52:36.859Z,3.40
2018-07-09T13:55:05.285Z,3.33
2018-07-09T13:57:33.754Z,3.57
2018-07-09T14:00:01.921Z,3.47
2018-07-09T14:02:30.091Z,3.37
2018-07-09T14:04:58.245Z,3.47
2018-07-09T14:07:26.387Z,3.00
2018-07-09T14:09:54.552Z,3.10
2018-07-09T14:12:26.289Z,2.70
2018-07-09T14:14:54.990Z,2.73
2018-07-09T14:17:23.130Z,2.70
2018-07-09T14:20:30.320Z,2.67
2018-07-09T14:22:58.887Z,2.70
2018-07-09T14:25:27.111Z,2.70
2018-07-09T14:27:55.659Z,2.43
2018-07-09T14:30:23.900Z,2.60
2018-07-09T14:32:52.104Z,2.80
2018-07-09T14:35:20.239Z,2.40
2018-07-09T14:37:48.800Z,2.53
2018-07-09T14:40:16.998Z,2.27
2018-07-09T14:42:45.180Z,2.37
2018-07-09T14:45:13.451Z,2.20
2018-07-09T14:47:41.912Z,2.30
2018-07-09T14:50:10.133Z,2.17
2018-07-09T14:52:38.431Z,2.30
2018-07-09T14:55:07.064Z,2.30
2018-07-09T14:57:35.216Z,2.50
2018-07-09T15:00:03.441Z,1.97
2018-07-09T15:02:31.772Z,2.13
2018-07-09T15:05:00.011Z,2.30
2018-07-09T15:07:28.464Z,2.00
2018-07-09T15:09:56.648Z,2.03
2018-07-09T15:12:24.898Z,2.30
2018-07-09T15:14:53.195Z,2.70
2018-07-09T15:17:21.379Z,2.37
2018-07-09T15:19:49.663Z,2.27
2018-07-09T15:22:17.918Z,2.23
2018-07-09T15:24:46.333Z,2.50
2018-07-09T15:27:14.533Z,2.17
2018-07-09T15:29:42.740Z,2.60
2018-07-09T15:32:16.983Z,2.93
2018-07-09T15:34:45.432Z,2.47
2018-07-09T15:37:13.980Z,2.50
2018-07-09T15:39:42.284Z,2.60
2018-07-09T15:42:10.519Z,3.03
2018-07-09T15:44:38.639Z,2.83
2018-07-09T15:47:07.033Z,2.47
2018-07-09T15:49:35.331Z,2.53
2018-07-09T15:52:03.733Z,2.20
2018-07-09T15:54:31.995Z,2.23
2018-07-09T15:57:00.284Z,2.60
2018-07-09T15:59:28.475Z,2.37
2018-07-09T16:01:57.203Z,2.53
2018-07-09T16:04:25.446Z,2.57
2018-07-09T16:06:53.680Z,2.50
2018-07-09T16:09:21.849Z,2.53
2018-07-09T16:11:50.153Z,2.30
2018-07-09T16:14:18.455Z,2.37
2018-07-09T16:16:46.647Z,2.60
2018-07-09T16:19:15.176Z,2.57
2018-07-09T16:21:43.356Z,2.20
2018-07-09T16:24:11.831Z,2.70
2018-07-09T16:26:40.000Z,2.43
2018-07-09T16:29:08.236Z,2.40
2018-07-09T16:31:36.831Z,2.10
2018-07-09T16:34:04.995Z,2.70
2018-07-09T16:36:33.156Z,2.40
2018-07-09T16:39:01.447Z,2.87
2018-07-09T16:41:29.583Z,2.97
2018-07-09T16:43:59.201Z,2.33
2018-07-09T16:46:27.335Z,2.80
2018-07-09T16:48:55.536Z,2.07
2018-07-09T16:51:23.912Z,2.50
2018-07-09T16:53:52.444Z,2.30
2018-07-09T16:56:20.957Z,2.47
2018-07-09T16:58:49.225Z,2.47
2018-07-09T17:01:17.837Z,2.23
2018-07-09T17:03:46.019Z,2.10
2018-07-09T17:06:14.227Z,2.40
2018-07-09T17:08:42.404Z,2.43
2018-07-09T17:11:13.128Z,2.27
2018-07-09T17:13:41.698Z,2.03
2018-07-09T17:16:10.272Z,2.90
2018-07-09T17:18:38.508Z,2.20
2018-07-09T17:21:06.865Z,2.10
2018-07-09T17:23:35.015Z,2.40
2018-07-09T17:26:03.351Z,1.80
2018-07-09T17:28:31.870Z,2.10
2018-07-09T17:31:00.136Z,2.40
2018-07-09T17:33:28.406Z,2.53
2018-07-09T17:35:56.901Z,2.40
2018-07-09T17:38:25.079Z,2.40
2018-07-09T17:40:53.321Z,2.33
2018-07-09T17:43:21.488Z,2.53
2018-07-09T17:45:49.995Z,2.10
2018-07-09T17:48:18.212Z,2.27
2018-07-09T17:50:46.451Z,4.20
2018-07-09T17:53:14.639Z,2.70
2018-07-09T17:55:43.000Z,2.73
2018-07-09T17:58:11.268Z,2.10
2018-07-09T18:00:39.538Z,2.50
2018-07-09T18:03:07.767Z,2.50
2018-07-09T18:05:35.912Z,2.47
2018-07-09T18:08:04.175Z,2.77
2018-07-09T18:10:32.527Z,2.00
2018-07-09T18:13:00.996Z,2.50
2018-07-09T18:15:29.431Z,2.60
2018-07-09T18:17:58.169Z,2.63
2018-07-09T18:20:26.414Z,2.37
2018-07-09T18:22:54.785Z,2.57
2018-07-09T18:25:23.190Z,2.30
2018-07-09T18:27:51.583Z,2.80
2018-07-09T18:30:20.025Z,3.00
2018-07-09T18:32:48.194Z,2.27
2018-07-09T18:35:16.605Z,2.20
2018-07-09T18:37:45.049Z,2.30
2018-07-09T18:40:13.867Z,2.30
2018-07-09T18:42:42.164Z,2.87
2018-07-09T18:45:10.808Z,2.37
2018-07-09T18:47:39.005Z,2.83
2018-07-09T18:50:07.731Z,2.60
2018-07-09T18:52:36.855Z,2.70
2018-07-09T18:55:05.858Z,2.43
2018-07-09T18:57:34.197Z,2.50
2018-07-09T19:00:02.512Z,2.73
2018-07-09T19:02:30.800Z,2.37
2018-07-09T19:04:59.368Z,2.07
2018-07-09T19:07:29.328Z,2.63
2018-07-09T19:09:57.764Z,2.70
2018-07-09T19:12:30.322Z,2.60
2018-07-09T19:14:58.524Z,2.50
2018-07-09T19:18:00.207Z,2.63
2018-07-09T19:20:34.750Z,2.40
2018-07-09T19:23:02.893Z,3.10
2018-07-09T19:25:31.261Z,2.57
2018-07-09T19:27:58.860Z,2.20
2018-07-09T19:30:26.601Z,2.30
2018-07-09T19:32:54.192Z,2.43
2018-07-09T19:35:21.831Z,2.30
2018-07-09T19:37:50.016Z,2.60
2018-07-09T19:40:17.568Z,1.90
2018-07-09T19:42:45.277Z,3.07
2018-07-09T19:45:12.982Z,3.27
2018-07-09T19:47:41.670Z,2.70
2018-07-09T19:50:09.546Z,2.67
2018-07-09T19:52:37.420Z,3.00
2018-07-09T19:55:05.130Z,2.90
2018-07-09T19:57:32.797Z,2.50
2018-07-09T20:00:00.868Z,2.10
2018-07-09T20:02:28.678Z,2.83
2018-07-09T20:04:56.289Z,2.97
2018-07-09T20:07:24.116Z,2.70
2018-07-09T20:09:57.148Z,2.20
2018-07-09T20:12:30.209Z,2.87
2018-07-09T20:15:03.765Z,2.57
2018-07-09T20:17:35.360Z,2.50
2018-07-09T20:20:03.246Z,2.70
2018-07-09T20:22:30.907Z,3.03
2018-07-09T20:24:59.045Z,3.10
2018-07-09T20:27:26.645Z,2.83
2018-07-09T20:29:54.331Z,2.97
2018-07-09T20:32:22.268Z,2.60
2018-07-09T20:34:50.224Z,3.03
2018-07-09T20:37:18.095Z,2.97
2018-07-09T20:39:46.072Z,2.90
2018-07-09T20:42:13.840Z,2.60
2018-07-09T20:44:41.578Z,2.33
2018-07-09T20:47:09.256Z,2.80
2018-07-09T20:49:37.314Z,2.43
2018-07-09T20:52:05.204Z,2.83
2018-07-09T20:54:32.870Z,2.60
2018-07-09T20:57:00.607Z,2.60
2018-07-09T20:59:28.296Z,2.60
2018-07-09T21:01:56.030Z,2.63
2018-07-09T21:04:28.936Z,2.57
2018-07-09T21:06:58.179Z,2.37
2018-07-09T21:09:26.612Z,2.33
2018-07-09T21:11:55.061Z,2.43
2018-07-09T21:14:22.695Z,2.57
2018-07-09T21:16:50.628Z,2.33
2018-07-09T21:19:18.300Z,2.77
2018-07-09T21:21:46.243Z,2.27
2018-07-09T21:24:13.852Z,2.23
2018-07-09T21:26:41.584Z,2.50
2018-07-09T21:29:09.276Z,2.53
2018-07-09T21:31:36.847Z,2.87
2018-07-09T21:34:04.534Z,2.77
2018-07-09T21:36:32.495Z,2.93
2018-07-09T21:39:00.127Z,3.20
2018-07-09T21:41:27.823Z,2.67
2018-07-09T21:43:55.471Z,3.13
2018-07-09T21:46:24.136Z,3.10
2018-07-09T21:48:51.819Z,3.20
2018-07-09T21:51:19.592Z,3.00
2018-07-09T21:53:47.308Z,3.03
2018-07-09T21:56:15.075Z,2.50
2018-07-09T21:58:42.672Z,2.80
2018-07-09T22:01:10.461Z,2.80
2018-07-09T22:03:38.235Z,3.07
2018-07-09T22:06:05.952Z,2.60
2018-07-09T22:08:33.676Z,3.00
2018-07-09T22:11:01.275Z,2.93
2018-07-09T22:13:28.944Z,2.70
2018-07-09T22:15:56.583Z,2.90
2018-07-09T22:18:24.476Z,3.20
2018-07-09T22:20:52.164Z,2.90
2018-07-09T22:23:19.939Z,3.30
2018-07-09T22:25:47.641Z,3.13
2018-07-09T22:28:15.214Z,3.30
2018-07-09T22:30:43.832Z,3.50
2018-07-09T22:33:11.979Z,3.37
2018-07-09T22:35:40.203Z,3.40
2018-07-09T22:38:08.429Z,3.00
2018-07-09T22:40:36.731Z,2.80
2018-07-09T22:44:10.447Z,3.23
2018-07-09T22:46:38.697Z,2.90
2018-07-09T22:49:06.974Z,3.43
2018-07-09T22:51:35.177Z,3.13
2018-07-09T22:54:03.792Z,3.10
2018-07-09T22:56:31.963Z,3.13
2018-07-09T22:59:00.194Z,2.80
2018-07-09T23:01:28.575Z,2.23
2018-07-09T23:03:56.876Z,3.40
2018-07-09T23:06:25.226Z,2.90
2018-07-09T23:08:58.741Z,3.43
2018-07-09T23:11:32.487Z,3.10
2018-07-09T23:14:32.404Z,3.23
2018-07-09T23:17:07.191Z,3.10
2018-07-09T23:20:40.565Z,2.87
2018-07-09T23:23:08.156Z,2.50
2018-07-09T23:25:35.860Z,2.80
2018-07-09T23:28:03.715Z,3.20
2018-07-09T23:30:31.407Z,2.80
2018-07-09T23:32:59.135Z,2.90
2018-07-09T23:35:26.772Z,3.10
2018-07-09T23:37:54.535Z,2.70
2018-07-09T23:40:22.183Z,2.60
2018-07-09T23:42:49.813Z,2.93
2018-07-09T23:45:17.447Z,2.87
2018-07-09T23:47:45.124Z,2.60
2018-07-09T23:50:12.853Z,2.53
2018-07-09T23:52:40.476Z,3.50
2018-07-09T23:55:08.276Z,2.93
2018-07-09T23:58:12.651Z,2.60
